sensor_id;sensor_type;location;lat;lon;timestamp;temperature;humidity
16267;DHT22;8241;48.786;9.250;2023-02-02T00:03:53;6.70;99.90
16267;DHT22;8241;48.786;9.250;2023-02-02T00:07:22;6.80;99.90
16267;DHT22;8241;48.786;9.250;2023-02-02T00:10:35;6.80;99.90
16267;DHT22;8241;48.786;9.250;2023-02-02T00:20:51;6.80;99.90
16267;DHT22;8241;48.786;9.250;2023-02-02T00:35:33;6.80;99.90
16267;DHT22;8241;48.786;9.250;2023-02-02T00:39:07;6.80;99.90
16267;DHT22;8241;48.786;9.250;2023-02-02T00:42:03;6.80;99.90
16267;DHT22;8241;48.786;9.250;2023-02-02T00:45:32;6.80;99.90
16267;DHT22;8241;48.786;9.250;2023-02-02T00:49:11;6.80;99.90
16267;DHT22;8241;48.786;9.250;2023-02-02T00:52:28;6.90;99.90
16267;DHT22;8241;48.786;9.250;2023-02-02T01:07:04;6.90;99.90
16267;DHT22;8241;48.786;9.250;2023-02-02T01:10:08;6.90;99.90
16267;DHT22;8241;48.786;9.250;2023-02-02T02:05:18;6.90;99.90
16267;DHT22;8241;48.786;9.250;2023-02-02T02:45:42;7.00;99.90
16267;DHT22;8241;48.786;9.250;2023-02-02T02:49:20;7.00;99.90
16267;DHT22;8241;48.786;9.250;2023-02-02T02:53:10;6.90;99.90
16267;DHT22;8241;48.786;9.250;2023-02-02T02:56:19;7.00;99.90
16267;DHT22;8241;48.786;9.250;2023-02-02T03:06:41;7.00;99.90
16267;DHT22;8241;48.786;9.250;2023-02-02T03:25:10;7.00;99.90
16267;DHT22;8241;48.786;9.250;2023-02-02T03:32:18;7.00;99.90
16267;DHT22;8241;48.786;9.250;2023-02-02T03:35:40;7.00;99.90
16267;DHT22;8241;48.786;9.250;2023-02-02T03:38:39;7.00;99.90
16267;DHT22;8241;48.786;9.250;2023-02-02T04:46:37;7.00;99.90
16267;DHT22;8241;48.786;9.250;2023-02-02T04:50:33;7.10;99.90
16267;DHT22;8241;48.786;9.250;2023-02-02T05:36:02;7.20;99.90
16267;DHT22;8241;48.786;9.250;2023-02-02T05:42:38;7.20;99.90
16267;DHT22;8241;48.786;9.250;2023-02-02T05:45:18;7.20;99.90
16267;DHT22;8241;48.786;9.250;2023-02-02T05:48:22;7.20;99.90
16267;DHT22;8241;48.786;9.250;2023-02-02T05:51:45;7.20;99.90
16267;DHT22;8241;48.786;9.250;2023-02-02T05:54:48;7.20;99.90
16267;DHT22;8241;48.786;9.250;2023-02-02T05:57:55;7.20;99.90
16267;DHT22;8241;48.786;9.250;2023-02-02T06:00:57;7.20;99.90
16267;DHT22;8241;48.786;9.250;2023-02-02T06:07:42;7.20;99.90
16267;DHT22;8241;48.786;9.250;2023-02-02T06:10:10;7.20;99.90
16267;DHT22;8241;48.786;9.250;2023-02-02T06:12:55;7.30;99.90
16267;DHT22;8241;48.786;9.250;2023-02-02T06:15:34;7.30;99.90
16267;DHT22;8241;48.786;9.250;2023-02-02T06:18:06;7.20;99.90
16267;DHT22;8241;48.786;9.250;2023-02-02T06:20:47;7.20;99.90
16267;DHT22;8241;48.786;9.250;2023-02-02T06:23:16;7.20;99.90
16267;DHT22;8241;48.786;9.250;2023-02-02T06:25:42;7.20;99.90
16267;DHT22;8241;48.786;9.250;2023-02-02T06:28:09;7.20;99.90
16267;DHT22;8241;48.786;9.250;2023-02-02T06:30:36;7.30;99.90
16267;DHT22;8241;48.786;9.250;2023-02-02T06:33:03;7.30;99.90
16267;DHT22;8241;48.786;9.250;2023-02-02T06:35:31;7.30;99.90
16267;DHT22;8241;48.786;9.250;2023-02-02T06:37:58;7.20;99.90
16267;DHT22;8241;48.786;9.250;2023-02-02T06:40:27;7.20;99.90
16267;DHT22;8241;48.786;9.250;2023-02-02T06:42:58;7.30;99.90
16267;DHT22;8241;48.786;9.250;2023-02-02T06:45:25;7.30;99.90
16267;DHT22;8241;48.786;9.250;2023-02-02T06:47:52;7.30;99.90
16267;DHT22;8241;48.786;9.250;2023-02-02T06:50:19;7.30;99.90
16267;DHT22;8241;48.786;9.250;2023-02-02T06:52:47;7.30;99.90
16267;DHT22;8241;48.786;9.250;2023-02-02T06:55:18;7.30;99.90
16267;DHT22;8241;48.786;9.250;2023-02-02T06:57:46;7.30;99.90
16267;DHT22;8241;48.786;9.250;2023-02-02T07:00:14;7.40;99.90
16267;DHT22;8241;48.786;9.250;2023-02-02T07:02:44;7.30;99.90
16267;DHT22;8241;48.786;9.250;2023-02-02T07:05:12;7.30;99.90
16267;DHT22;8241;48.786;9.250;2023-02-02T07:07:40;7.30;99.90
16267;DHT22;8241;48.786;9.250;2023-02-02T07:10:09;7.30;99.90
16267;DHT22;8241;48.786;9.250;2023-02-02T07:12:37;7.30;99.90
16267;DHT22;8241;48.786;9.250;2023-02-02T07:15:06;7.30;99.90
16267;DHT22;8241;48.786;9.250;2023-02-02T07:17:40;7.30;99.90
16267;DHT22;8241;48.786;9.250;2023-02-02T07:20:15;7.40;99.90
16267;DHT22;8241;48.786;9.250;2023-02-02T07:22:42;7.40;99.90
16267;DHT22;8241;48.786;9.250;2023-02-02T07:25:09;7.40;99.90
16267;DHT22;8241;48.786;9.250;2023-02-02T07:27:44;7.40;99.90
16267;DHT22;8241;48.786;9.250;2023-02-02T07:30:14;7.40;99.90
16267;DHT22;8241;48.786;9.250;2023-02-02T07:32:54;7.40;99.90
16267;DHT22;8241;48.786;9.250;2023-02-02T07:35:37;7.40;99.90
16267;DHT22;8241;48.786;9.250;2023-02-02T07:38:04;7.40;99.90
16267;DHT22;8241;48.786;9.250;2023-02-02T07:40:31;7.40;99.90
16267;DHT22;8241;48.786;9.250;2023-02-02T07:43:17;7.40;99.90
16267;DHT22;8241;48.786;9.250;2023-02-02T07:45:49;7.50;99.90
16267;DHT22;8241;48.786;9.250;2023-02-02T07:48:23;7.40;99.90
16267;DHT22;8241;48.786;9.250;2023-02-02T07:51:08;7.40;99.90
16267;DHT22;8241;48.786;9.250;2023-02-02T07:53:42;7.50;99.90
16267;DHT22;8241;48.786;9.250;2023-02-02T07:56:10;7.50;99.90
16267;DHT22;8241;48.786;9.250;2023-02-02T07:58:40;7.40;99.90
16267;DHT22;8241;48.786;9.250;2023-02-02T08:01:17;7.30;99.90
16267;DHT22;8241;48.786;9.250;2023-02-02T08:04:17;7.20;99.90
16267;DHT22;8241;48.786;9.250;2023-02-02T08:06:44;7.20;99.90
16267;DHT22;8241;48.786;9.250;2023-02-02T08:09:11;7.20;99.90
16267;DHT22;8241;48.786;9.250;2023-02-02T08:11:38;7.20;99.90
16267;DHT22;8241;48.786;9.250;2023-02-02T08:14:05;7.30;99.90
16267;DHT22;8241;48.786;9.250;2023-02-02T08:16:34;7.40;99.90
16267;DHT22;8241;48.786;9.250;2023-02-02T08:19:01;7.30;99.90
16267;DHT22;8241;48.786;9.250;2023-02-02T08:21:28;7.30;99.90
16267;DHT22;8241;48.786;9.250;2023-02-02T08:23:56;7.30;99.90
16267;DHT22;8241;48.786;9.250;2023-02-02T08:26:29;7.30;99.90
16267;DHT22;8241;48.786;9.250;2023-02-02T08:29:00;7.30;99.90
16267;DHT22;8241;48.786;9.250;2023-02-02T08:31:29;7.40;99.90
16267;DHT22;8241;48.786;9.250;2023-02-02T08:33:59;7.50;99.90
16267;DHT22;8241;48.786;9.250;2023-02-02T08:36:36;7.50;99.90
16267;DHT22;8241;48.786;9.250;2023-02-02T08:39:04;7.50;99.90
16267;DHT22;8241;48.786;9.250;2023-02-02T08:41:32;7.40;99.90
16267;DHT22;8241;48.786;9.250;2023-02-02T08:43:59;7.50;99.90
16267;DHT22;8241;48.786;9.250;2023-02-02T08:46:26;7.50;99.90
16267;DHT22;8241;48.786;9.250;2023-02-02T08:48:53;7.50;99.90
16267;DHT22;8241;48.786;9.250;2023-02-02T08:51:21;7.50;99.90
16267;DHT22;8241;48.786;9.250;2023-02-02T08:53:48;7.50;99.90
16267;DHT22;8241;48.786;9.250;2023-02-02T08:56:17;7.60;99.90
16267;DHT22;8241;48.786;9.250;2023-02-02T08:58:45;7.60;99.90
16267;DHT22;8241;48.786;9.250;2023-02-02T09:01:14;7.60;99.90
16267;DHT22;8241;48.786;9.250;2023-02-02T09:03:42;7.50;99.90
16267;DHT22;8241;48.786;9.250;2023-02-02T09:06:10;7.50;99.90
16267;DHT22;8241;48.786;9.250;2023-02-02T09:08:39;7.50;99.90
16267;DHT22;8241;48.786;9.250;2023-02-02T09:11:08;7.60;99.90
16267;DHT22;8241;48.786;9.250;2023-02-02T09:13:38;7.60;99.90
16267;DHT22;8241;48.786;9.250;2023-02-02T09:16:08;7.50;99.90
16267;DHT22;8241;48.786;9.250;2023-02-02T09:18:36;7.60;99.90
16267;DHT22;8241;48.786;9.250;2023-02-02T09:21:05;7.50;99.90
16267;DHT22;8241;48.786;9.250;2023-02-02T09:23:33;7.60;99.90
16267;DHT22;8241;48.786;9.250;2023-02-02T09:26:09;7.60;99.90
16267;DHT22;8241;48.786;9.250;2023-02-02T09:28:37;7.60;99.90
16267;DHT22;8241;48.786;9.250;2023-02-02T09:31:06;7.60;99.90
16267;DHT22;8241;48.786;9.250;2023-02-02T09:33:33;7.70;99.90
16267;DHT22;8241;48.786;9.250;2023-02-02T09:36:05;7.70;99.90
16267;DHT22;8241;48.786;9.250;2023-02-02T09:38:33;7.70;99.90
16267;DHT22;8241;48.786;9.250;2023-02-02T09:41:00;7.70;99.90
16267;DHT22;8241;48.786;9.250;2023-02-02T09:43:40;7.80;99.90
16267;DHT22;8241;48.786;9.250;2023-02-02T09:46:13;7.70;99.90
16267;DHT22;8241;48.786;9.250;2023-02-02T09:48:52;7.70;99.90
16267;DHT22;8241;48.786;9.250;2023-02-02T09:51:22;7.60;99.90
16267;DHT22;8241;48.786;9.250;2023-02-02T09:53:53;7.70;99.90
16267;DHT22;8241;48.786;9.250;2023-02-02T09:56:25;7.60;99.90
16267;DHT22;8241;48.786;9.250;2023-02-02T09:58:56;7.70;99.90
16267;DHT22;8241;48.786;9.250;2023-02-02T10:01:28;7.70;99.90
16267;DHT22;8241;48.786;9.250;2023-02-02T10:04:00;7.70;99.90
16267;DHT22;8241;48.786;9.250;2023-02-02T10:06:34;7.60;99.90
16267;DHT22;8241;48.786;9.250;2023-02-02T10:09:14;7.60;99.90
16267;DHT22;8241;48.786;9.250;2023-02-02T10:11:55;7.60;99.90
16267;DHT22;8241;48.786;9.250;2023-02-02T10:14:34;7.60;99.90
16267;DHT22;8241;48.786;9.250;2023-02-02T10:17:12;7.60;99.90
16267;DHT22;8241;48.786;9.250;2023-02-02T10:19:43;7.70;99.90
16267;DHT22;8241;48.786;9.250;2023-02-02T10:22:41;7.60;99.90
16267;DHT22;8241;48.786;9.250;2023-02-02T10:25:12;7.70;99.90
16267;DHT22;8241;48.786;9.250;2023-02-02T10:27:51;7.60;99.90
16267;DHT22;8241;48.786;9.250;2023-02-02T10:30:35;7.60;99.90
16267;DHT22;8241;48.786;9.250;2023-02-02T10:33:24;7.60;99.90
16267;DHT22;8241;48.786;9.250;2023-02-02T10:35:55;7.60;99.90
16267;DHT22;8241;48.786;9.250;2023-02-02T10:38:36;7.60;99.90
16267;DHT22;8241;48.786;9.250;2023-02-02T10:41:15;7.60;99.90
16267;DHT22;8241;48.786;9.250;2023-02-02T10:44:05;7.70;99.90
16267;DHT22;8241;48.786;9.250;2023-02-02T10:46:39;7.70;99.90
16267;DHT22;8241;48.786;9.250;2023-02-02T10:49:15;7.80;99.90
16267;DHT22;8241;48.786;9.250;2023-02-02T10:51:49;7.80;99.90
16267;DHT22;8241;48.786;9.250;2023-02-02T10:54:39;7.70;99.90
16267;DHT22;8241;48.786;9.250;2023-02-02T10:57:12;7.70;99.90
16267;DHT22;8241;48.786;9.250;2023-02-02T10:59:43;7.70;99.90
16267;DHT22;8241;48.786;9.250;2023-02-02T11:02:16;7.70;99.90
16267;DHT22;8241;48.786;9.250;2023-02-02T11:04:43;7.70;99.90
16267;DHT22;8241;48.786;9.250;2023-02-02T11:07:27;7.70;99.90
16267;DHT22;8241;48.786;9.250;2023-02-02T11:09:54;7.70;99.90
16267;DHT22;8241;48.786;9.250;2023-02-02T11:12:26;7.80;99.90
16267;DHT22;8241;48.786;9.250;2023-02-02T11:14:58;7.80;99.90
16267;DHT22;8241;48.786;9.250;2023-02-02T11:17:28;7.80;99.90
16267;DHT22;8241;48.786;9.250;2023-02-02T11:19:55;7.80;99.90
16267;DHT22;8241;48.786;9.250;2023-02-02T11:22:48;7.80;99.90
16267;DHT22;8241;48.786;9.250;2023-02-02T11:25:33;7.80;99.90
16267;DHT22;8241;48.786;9.250;2023-02-02T11:28:09;7.80;99.90
16267;DHT22;8241;48.786;9.250;2023-02-02T11:30:45;7.90;99.90
16267;DHT22;8241;48.786;9.250;2023-02-02T11:33:28;7.90;99.90
16267;DHT22;8241;48.786;9.250;2023-02-02T11:35:58;7.90;99.90
16267;DHT22;8241;48.786;9.250;2023-02-02T11:38:30;7.90;99.90
16267;DHT22;8241;48.786;9.250;2023-02-02T11:40:59;7.90;99.90
16267;DHT22;8241;48.786;9.250;2023-02-02T11:43:32;7.90;99.90
16267;DHT22;8241;48.786;9.250;2023-02-02T11:46:17;8.00;99.90
16267;DHT22;8241;48.786;9.250;2023-02-02T11:48:59;8.00;99.90
16267;DHT22;8241;48.786;9.250;2023-02-02T11:51:56;7.90;99.90
16267;DHT22;8241;48.786;9.250;2023-02-02T11:54:32;7.90;99.90
16267;DHT22;8241;48.786;9.250;2023-02-02T11:57:06;7.90;99.90
16267;DHT22;8241;48.786;9.250;2023-02-02T11:59:48;7.90;99.90
16267;DHT22;8241;48.786;9.250;2023-02-02T12:02:26;7.90;99.90
16267;DHT22;8241;48.786;9.250;2023-02-02T12:05:12;7.90;99.90
16267;DHT22;8241;48.786;9.250;2023-02-02T12:07:39;7.90;99.90
16267;DHT22;8241;48.786;9.250;2023-02-02T12:10:17;7.80;99.90
16267;DHT22;8241;48.786;9.250;2023-02-02T12:12:53;7.90;99.90
16267;DHT22;8241;48.786;9.250;2023-02-02T12:15:41;7.90;99.90
16267;DHT22;8241;48.786;9.250;2023-02-02T12:18:48;7.90;99.90
16267;DHT22;8241;48.786;9.250;2023-02-02T12:21:45;7.80;99.90
16267;DHT22;8241;48.786;9.250;2023-02-02T12:24:30;7.80;99.90
16267;DHT22;8241;48.786;9.250;2023-02-02T12:27:11;7.70;99.90
16267;DHT22;8241;48.786;9.250;2023-02-02T12:29:56;7.70;99.90
16267;DHT22;8241;48.786;9.250;2023-02-02T12:32:42;7.70;99.90
16267;DHT22;8241;48.786;9.250;2023-02-02T12:35:31;7.70;99.90
16267;DHT22;8241;48.786;9.250;2023-02-02T12:38:08;7.60;99.90
16267;DHT22;8241;48.786;9.250;2023-02-02T12:40:50;7.60;99.90
16267;DHT22;8241;48.786;9.250;2023-02-02T12:43:28;7.60;99.90
16267;DHT22;8241;48.786;9.250;2023-02-02T12:46:11;7.60;99.90
16267;DHT22;8241;48.786;9.250;2023-02-02T12:48:55;7.60;99.90
16267;DHT22;8241;48.786;9.250;2023-02-02T12:51:40;7.60;99.90
16267;DHT22;8241;48.786;9.250;2023-02-02T12:54:36;7.60;99.90
16267;DHT22;8241;48.786;9.250;2023-02-02T12:57:14;7.50;99.90
16267;DHT22;8241;48.786;9.250;2023-02-02T13:02:52;7.50;99.90
16267;DHT22;8241;48.786;9.250;2023-02-02T13:05:32;7.50;99.90
16267;DHT22;8241;48.786;9.250;2023-02-02T13:08:05;7.40;99.90
16267;DHT22;8241;48.786;9.250;2023-02-02T13:10:36;7.40;99.90
16267;DHT22;8241;48.786;9.250;2023-02-02T13:13:10;7.40;99.90
16267;DHT22;8241;48.786;9.250;2023-02-02T13:15:41;7.40;99.90
16267;DHT22;8241;48.786;9.250;2023-02-02T13:18:11;7.50;99.90
16267;DHT22;8241;48.786;9.250;2023-02-02T13:20:43;7.50;99.90
16267;DHT22;8241;48.786;9.250;2023-02-02T13:23:16;7.50;99.90
16267;DHT22;8241;48.786;9.250;2023-02-02T13:25:49;7.50;99.90
16267;DHT22;8241;48.786;9.250;2023-02-02T13:28:29;7.40;99.90
16267;DHT22;8241;48.786;9.250;2023-02-02T13:31:02;7.40;99.90
16267;DHT22;8241;48.786;9.250;2023-02-02T13:33:33;7.50;99.90
16267;DHT22;8241;48.786;9.250;2023-02-02T13:36:07;7.50;99.90
16267;DHT22;8241;48.786;9.250;2023-02-02T13:38:35;7.40;99.90
16267;DHT22;8241;48.786;9.250;2023-02-02T13:41:09;7.50;99.90
16267;DHT22;8241;48.786;9.250;2023-02-02T13:43:44;7.50;99.90
16267;DHT22;8241;48.786;9.250;2023-02-02T13:46:24;7.50;99.90
16267;DHT22;8241;48.786;9.250;2023-02-02T13:48:59;7.50;99.90
16267;DHT22;8241;48.786;9.250;2023-02-02T13:51:45;7.60;99.90
16267;DHT22;8241;48.786;9.250;2023-02-02T13:57:46;7.60;99.90
16267;DHT22;8241;48.786;9.250;2023-02-02T14:00:19;7.60;99.90
16267;DHT22;8241;48.786;9.250;2023-02-02T14:02:49;7.60;99.90
16267;DHT22;8241;48.786;9.250;2023-02-02T14:05:21;7.70;99.90
16267;DHT22;8241;48.786;9.250;2023-02-02T14:07:54;7.60;99.90
16267;DHT22;8241;48.786;9.250;2023-02-02T14:10:25;7.60;99.90
16267;DHT22;8241;48.786;9.250;2023-02-02T14:13:05;7.60;99.90
16267;DHT22;8241;48.786;9.250;2023-02-02T14:15:40;7.60;99.90
16267;DHT22;8241;48.786;9.250;2023-02-02T14:18:08;7.70;99.90
16267;DHT22;8241;48.786;9.250;2023-02-02T14:20:53;7.70;99.90
16267;DHT22;8241;48.786;9.250;2023-02-02T14:23:48;7.70;99.90
16267;DHT22;8241;48.786;9.250;2023-02-02T14:26:40;7.70;99.90
16267;DHT22;8241;48.786;9.250;2023-02-02T14:29:40;7.70;99.90
16267;DHT22;8241;48.786;9.250;2023-02-02T14:32:31;7.70;99.90
16267;DHT22;8241;48.786;9.250;2023-02-02T14:38:20;7.80;99.90
16267;DHT22;8241;48.786;9.250;2023-02-02T14:40:53;7.80;99.90
16267;DHT22;8241;48.786;9.250;2023-02-02T14:43:29;7.70;99.90
16267;DHT22;8241;48.786;9.250;2023-02-02T14:46:32;7.80;99.90
16267;DHT22;8241;48.786;9.250;2023-02-02T14:49:16;7.80;99.90
16267;DHT22;8241;48.786;9.250;2023-02-02T14:51:53;7.80;99.90
16267;DHT22;8241;48.786;9.250;2023-02-02T14:54:36;7.80;99.90
16267;DHT22;8241;48.786;9.250;2023-02-02T14:57:21;7.80;99.90
16267;DHT22;8241;48.786;9.250;2023-02-02T14:59:51;7.80;99.90
16267;DHT22;8241;48.786;9.250;2023-02-02T15:02:23;7.80;99.90
16267;DHT22;8241;48.786;9.250;2023-02-02T15:08:20;7.90;99.90
16267;DHT22;8241;48.786;9.250;2023-02-02T15:11:04;7.90;99.90
16267;DHT22;8241;48.786;9.250;2023-02-02T15:13:57;7.90;99.90
16267;DHT22;8241;48.786;9.250;2023-02-02T15:16:35;7.90;99.90
16267;DHT22;8241;48.786;9.250;2023-02-02T15:19:11;7.90;99.90
16267;DHT22;8241;48.786;9.250;2023-02-02T15:21:39;7.90;99.90
16267;DHT22;8241;48.786;9.250;2023-02-02T15:24:18;7.90;99.90
16267;DHT22;8241;48.786;9.250;2023-02-02T15:26:46;7.90;99.90
16267;DHT22;8241;48.786;9.250;2023-02-02T15:29:18;7.90;99.90
16267;DHT22;8241;48.786;9.250;2023-02-02T15:31:50;7.90;99.90
16267;DHT22;8241;48.786;9.250;2023-02-02T15:34:23;7.80;99.90
16267;DHT22;8241;48.786;9.250;2023-02-02T15:36:54;7.90;99.90
16267;DHT22;8241;48.786;9.250;2023-02-02T15:39:26;7.90;99.90
16267;DHT22;8241;48.786;9.250;2023-02-02T15:42:01;7.90;99.90
16267;DHT22;8241;48.786;9.250;2023-02-02T15:44:49;7.90;99.90
16267;DHT22;8241;48.786;9.250;2023-02-02T15:47:18;7.90;99.90
16267;DHT22;8241;48.786;9.250;2023-02-02T15:49:51;7.90;99.90
16267;DHT22;8241;48.786;9.250;2023-02-02T15:52:27;7.80;99.90
16267;DHT22;8241;48.786;9.250;2023-02-02T15:55:01;7.80;99.90
16267;DHT22;8241;48.786;9.250;2023-02-02T15:57:35;7.80;99.90
16267;DHT22;8241;48.786;9.250;2023-02-02T16:00:24;7.80;99.90
16267;DHT22;8241;48.786;9.250;2023-02-02T16:02:55;7.80;99.90
16267;DHT22;8241;48.786;9.250;2023-02-02T16:05:39;7.80;99.90
16267;DHT22;8241;48.786;9.250;2023-02-02T16:08:11;7.80;99.90
16267;DHT22;8241;48.786;9.250;2023-02-02T16:10:40;7.80;99.90
16267;DHT22;8241;48.786;9.250;2023-02-02T16:13:17;7.90;99.90
16267;DHT22;8241;48.786;9.250;2023-02-02T16:15:53;7.80;99.90
16267;DHT22;8241;48.786;9.250;2023-02-02T16:18:20;7.80;99.90
16267;DHT22;8241;48.786;9.250;2023-02-02T16:20:50;7.90;99.90
16267;DHT22;8241;48.786;9.250;2023-02-02T16:23:28;7.90;99.90
16267;DHT22;8241;48.786;9.250;2023-02-02T16:25:59;7.80;99.90
16267;DHT22;8241;48.786;9.250;2023-02-02T16:28:34;7.80;99.90
16267;DHT22;8241;48.786;9.250;2023-02-02T16:31:03;7.80;99.90
16267;DHT22;8241;48.786;9.250;2023-02-02T16:33:37;7.80;99.90
16267;DHT22;8241;48.786;9.250;2023-02-02T16:36:24;7.80;99.90
16267;DHT22;8241;48.786;9.250;2023-02-02T16:38:53;7.80;99.90
16267;DHT22;8241;48.786;9.250;2023-02-02T16:41:27;7.80;99.90
16267;DHT22;8241;48.786;9.250;2023-02-02T16:43:54;7.80;99.90
16267;DHT22;8241;48.786;9.250;2023-02-02T16:46:43;7.90;99.90
16267;DHT22;8241;48.786;9.250;2023-02-02T16:49:16;7.80;99.90
16267;DHT22;8241;48.786;9.250;2023-02-02T16:51:47;7.90;99.90
16267;DHT22;8241;48.786;9.250;2023-02-02T16:54:18;7.90;99.90
16267;DHT22;8241;48.786;9.250;2023-02-02T16:56:48;7.80;99.90
16267;DHT22;8241;48.786;9.250;2023-02-02T16:59:20;7.90;99.90
16267;DHT22;8241;48.786;9.250;2023-02-02T17:01:51;7.90;99.90
16267;DHT22;8241;48.786;9.250;2023-02-02T17:04:21;7.90;99.90
16267;DHT22;8241;48.786;9.250;2023-02-02T17:07:07;7.90;99.90
16267;DHT22;8241;48.786;9.250;2023-02-02T17:09:40;7.90;99.90
16267;DHT22;8241;48.786;9.250;2023-02-02T17:12:22;7.90;99.90
16267;DHT22;8241;48.786;9.250;2023-02-02T17:14:56;8.00;99.90
16267;DHT22;8241;48.786;9.250;2023-02-02T17:17:48;7.90;99.90
16267;DHT22;8241;48.786;9.250;2023-02-02T17:20:18;7.80;99.90
16267;DHT22;8241;48.786;9.250;2023-02-02T17:22:50;7.80;99.90
16267;DHT22;8241;48.786;9.250;2023-02-02T17:25:24;7.90;99.90
16267;DHT22;8241;48.786;9.250;2023-02-02T17:31:09;7.80;99.90
16267;DHT22;8241;48.786;9.250;2023-02-02T17:33:45;7.80;99.90
16267;DHT22;8241;48.786;9.250;2023-02-02T17:36:12;7.70;99.90
16267;DHT22;8241;48.786;9.250;2023-02-02T17:38:44;7.70;99.90
16267;DHT22;8241;48.786;9.250;2023-02-02T17:41:11;7.70;99.90
16267;DHT22;8241;48.786;9.250;2023-02-02T17:43:43;7.70;99.90
16267;DHT22;8241;48.786;9.250;2023-02-02T17:46:11;7.70;99.90
16267;DHT22;8241;48.786;9.250;2023-02-02T17:48:39;7.70;99.90
16267;DHT22;8241;48.786;9.250;2023-02-02T17:51:13;7.60;99.90
16267;DHT22;8241;48.786;9.250;2023-02-02T17:53:46;7.60;99.90
16267;DHT22;8241;48.786;9.250;2023-02-02T17:56:13;7.60;99.90
16267;DHT22;8241;48.786;9.250;2023-02-02T17:59:06;7.60;99.90
16267;DHT22;8241;48.786;9.250;2023-02-02T18:01:39;7.60;99.90
16267;DHT22;8241;48.786;9.250;2023-02-02T18:04:11;7.60;99.90
16267;DHT22;8241;48.786;9.250;2023-02-02T18:06:45;7.60;99.90
16267;DHT22;8241;48.786;9.250;2023-02-02T18:09:22;7.70;99.90
16267;DHT22;8241;48.786;9.250;2023-02-02T18:12:40;7.70;99.90
16267;DHT22;8241;48.786;9.250;2023-02-02T18:15:12;7.70;99.90
16267;DHT22;8241;48.786;9.250;2023-02-02T18:17:40;7.70;99.90
16267;DHT22;8241;48.786;9.250;2023-02-02T18:20:10;7.70;99.90
16267;DHT22;8241;48.786;9.250;2023-02-02T18:23:10;7.70;99.90
16267;DHT22;8241;48.786;9.250;2023-02-02T18:25:49;7.70;99.90
16267;DHT22;8241;48.786;9.250;2023-02-02T18:28:37;7.70;99.90
16267;DHT22;8241;48.786;9.250;2023-02-02T18:31:14;7.70;99.90
16267;DHT22;8241;48.786;9.250;2023-02-02T18:33:44;7.80;99.90
16267;DHT22;8241;48.786;9.250;2023-02-02T18:36:15;7.70;99.90
16267;DHT22;8241;48.786;9.250;2023-02-02T18:38:46;7.60;99.90
16267;DHT22;8241;48.786;9.250;2023-02-02T18:41:28;7.60;99.90
16267;DHT22;8241;48.786;9.250;2023-02-02T18:44:13;7.80;99.90
16267;DHT22;8241;48.786;9.250;2023-02-02T18:46:48;7.70;99.90
16267;DHT22;8241;48.786;9.250;2023-02-02T18:52:49;7.60;99.90
16267;DHT22;8241;48.786;9.250;2023-02-02T18:56:00;7.60;99.90
16267;DHT22;8241;48.786;9.250;2023-02-02T19:02:15;7.70;99.90
16267;DHT22;8241;48.786;9.250;2023-02-02T19:04:45;7.70;99.90
16267;DHT22;8241;48.786;9.250;2023-02-02T19:07:35;7.60;99.90
16267;DHT22;8241;48.786;9.250;2023-02-02T19:10:33;7.70;99.90
16267;DHT22;8241;48.786;9.250;2023-02-02T19:13:12;7.60;99.90
16267;DHT22;8241;48.786;9.250;2023-02-02T19:15:59;7.60;99.90
16267;DHT22;8241;48.786;9.250;2023-02-02T19:18:38;7.60;99.90
16267;DHT22;8241;48.786;9.250;2023-02-02T19:21:12;7.70;99.90
16267;DHT22;8241;48.786;9.250;2023-02-02T19:23:41;7.70;99.90
16267;DHT22;8241;48.786;9.250;2023-02-02T19:26:26;7.70;99.90
16267;DHT22;8241;48.786;9.250;2023-02-02T19:28:59;7.60;99.90
16267;DHT22;8241;48.786;9.250;2023-02-02T19:31:28;7.60;99.90
16267;DHT22;8241;48.786;9.250;2023-02-02T19:33:55;7.60;99.90
16267;DHT22;8241;48.786;9.250;2023-02-02T19:36:24;7.60;99.90
16267;DHT22;8241;48.786;9.250;2023-02-02T19:38:57;7.60;99.90
16267;DHT22;8241;48.786;9.250;2023-02-02T19:41:28;7.60;99.90
16267;DHT22;8241;48.786;9.250;2023-02-02T19:43:57;7.70;99.90
16267;DHT22;8241;48.786;9.250;2023-02-02T19:46:26;7.70;99.90
16267;DHT22;8241;48.786;9.250;2023-02-02T19:49:00;7.60;99.90
16267;DHT22;8241;48.786;9.250;2023-02-02T19:51:38;7.60;99.90
16267;DHT22;8241;48.786;9.250;2023-02-02T19:54:27;7.60;99.90
16267;DHT22;8241;48.786;9.250;2023-02-02T19:56:58;7.70;99.90
16267;DHT22;8241;48.786;9.250;2023-02-02T19:59:33;7.70;99.90
16267;DHT22;8241;48.786;9.250;2023-02-02T20:02:36;7.70;99.90
16267;DHT22;8241;48.786;9.250;2023-02-02T20:05:18;7.70;99.90
16267;DHT22;8241;48.786;9.250;2023-02-02T20:07:45;7.70;99.90
16267;DHT22;8241;48.786;9.250;2023-02-02T20:10:21;7.70;99.90
16267;DHT22;8241;48.786;9.250;2023-02-02T20:12:48;7.80;99.90
16267;DHT22;8241;48.786;9.250;2023-02-02T20:15:23;7.80;99.90
16267;DHT22;8241;48.786;9.250;2023-02-02T20:17:51;7.70;99.90
16267;DHT22;8241;48.786;9.250;2023-02-02T20:20:25;7.70;99.90
16267;DHT22;8241;48.786;9.250;2023-02-02T20:22:53;7.70;99.90
16267;DHT22;8241;48.786;9.250;2023-02-02T20:25:21;7.70;99.90
16267;DHT22;8241;48.786;9.250;2023-02-02T20:27:49;7.60;99.90
16267;DHT22;8241;48.786;9.250;2023-02-02T20:30:21;7.60;99.90
16267;DHT22;8241;48.786;9.250;2023-02-02T20:32:53;7.60;99.90
16267;DHT22;8241;48.786;9.250;2023-02-02T20:35:33;7.60;99.90
16267;DHT22;8241;48.786;9.250;2023-02-02T20:38:01;7.60;99.90
16267;DHT22;8241;48.786;9.250;2023-02-02T20:40:37;7.50;99.90
16267;DHT22;8241;48.786;9.250;2023-02-02T20:43:04;7.40;99.90
16267;DHT22;8241;48.786;9.250;2023-02-02T20:45:31;7.40;99.90
16267;DHT22;8241;48.786;9.250;2023-02-02T20:47:58;7.40;99.90
16267;DHT22;8241;48.786;9.250;2023-02-02T20:50:26;7.30;99.90
16267;DHT22;8241;48.786;9.250;2023-02-02T20:52:54;7.30;99.90
16267;DHT22;8241;48.786;9.250;2023-02-02T20:56:01;7.30;99.90
16267;DHT22;8241;48.786;9.250;2023-02-02T20:58:41;7.30;99.90
16267;DHT22;8241;48.786;9.250;2023-02-02T21:01:09;7.40;99.90
16267;DHT22;8241;48.786;9.250;2023-02-02T21:03:46;7.40;99.90
16267;DHT22;8241;48.786;9.250;2023-02-02T21:06:40;7.30;99.90
16267;DHT22;8241;48.786;9.250;2023-02-02T21:09:19;7.20;99.90
16267;DHT22;8241;48.786;9.250;2023-02-02T21:11:54;7.20;99.90
16267;DHT22;8241;48.786;9.250;2023-02-02T21:16:07;7.20;99.90
16267;DHT22;8241;48.786;9.250;2023-02-02T21:18:07;7.10;99.90
16267;DHT22;8241;48.786;9.250;2023-02-02T21:20:44;7.20;99.90
16267;DHT22;8241;48.786;9.250;2023-02-02T21:23:14;7.20;99.90
16267;DHT22;8241;48.786;9.250;2023-02-02T21:26:14;7.30;99.90
16267;DHT22;8241;48.786;9.250;2023-02-02T21:28:46;7.20;99.90
16267;DHT22;8241;48.786;9.250;2023-02-02T21:31:27;7.30;99.90
16267;DHT22;8241;48.786;9.250;2023-02-02T21:33:59;7.20;99.90
16267;DHT22;8241;48.786;9.250;2023-02-02T21:36:32;7.20;99.90
16267;DHT22;8241;48.786;9.250;2023-02-02T21:39:17;7.20;99.90
16267;DHT22;8241;48.786;9.250;2023-02-02T21:41:57;7.20;99.90
16267;DHT22;8241;48.786;9.250;2023-02-02T21:44:34;7.20;99.90
16267;DHT22;8241;48.786;9.250;2023-02-02T21:47:14;7.20;99.90
16267;DHT22;8241;48.786;9.250;2023-02-02T21:49:59;7.30;99.90
16267;DHT22;8241;48.786;9.250;2023-02-02T21:52:37;7.10;99.90
16267;DHT22;8241;48.786;9.250;2023-02-02T21:55:34;7.10;99.90
16267;DHT22;8241;48.786;9.250;2023-02-02T21:58:16;7.10;99.90
16267;DHT22;8241;48.786;9.250;2023-02-02T22:00:57;7.30;99.90
16267;DHT22;8241;48.786;9.250;2023-02-02T22:03:36;7.10;99.90